Wetterdaten: Woche 27.05.02 - 02.06.02 (KW22)
Datum Zeit Temperatur Luftfeuchte Luftdruck Regenmenge Wind Richtung Taupunkt Windchill
27.05.2002 00:00 11.2 C 99 % 1010.8 hPa 1.2 l/m 2.0 km/h (1 Bft) SO 11.1 C 11.2 C
27.05.2002 01:00 10.8 C 100 % 1010.4 hPa 0.6 l/m 5.8 km/h (1 Bft) O-SO 10.8 C 10.8 C
27.05.2002 02:00 10.6 C 100 % 1009.9 hPa 1.8 l/m 1.3 km/h (1 Bft) O-SO 10.6 C 10.6 C
27.05.2002 03:00 10.4 C 100 % 1010.0 hPa 2.4 l/m 0.5 km/h (0 Bft) SO 10.4 C 10.4 C
27.05.2002 04:00 10.1 C 100 % 1009.7 hPa 3.6 l/m 0.0 km/h (0 Bft) N 10.1 C 10.1 C
27.05.2002 05:00 9.6 C 100 % 1009.7 hPa 0.9 l/m 0.0 km/h (0 Bft) N 9.6 C 9.6 C
27.05.2002 06:00 9.6 C 100 % 1009.2 hPa 0.9 l/m 0.0 km/h (0 Bft) N 9.6 C 9.6 C
27.05.2002 07:00 9.6 C 100 % 1009.5 hPa 0.6 l/m 0.1 km/h (0 Bft) N 9.6 C 9.6 C
27.05.2002 08:00 9.8 C 100 % 1009.4 hPa 0.3 l/m 1.8 km/h (1 Bft) SO 9.8 C 9.7 C
27.05.2002 09:00 10.5 C 98 % 1009.5 hPa 0.0 l/m 0.1 km/h (0 Bft) N 10.2 C 10.5 C
27.05.2002 10:00 11.3 C 91 % 1008.7 hPa 0.0 l/m 0.1 km/h (0 Bft) N 9.8 C 11.3 C
27.05.2002 11:00 10.1 C 97 % 1008.7 hPa 1.2 l/m 7.3 km/h (2 Bft) O-SO 9.6 C 9.5 C
27.05.2002 12:00 9.9 C 99 % 1009.3 hPa 1.8 l/m 0.3 km/h (0 Bft) SO 9.8 C 9.9 C
27.05.2002 13:00 10.1 C 98 % 1009.3 hPa 1.8 l/m 0.3 km/h (0 Bft) N 9.9 C 10.1 C
27.05.2002 14:00 10.2 C 99 % 1008.7 hPa 1.5 l/m 0.3 km/h (0 Bft) N 10.1 C 10.2 C
27.05.2002 15:00 10.1 C 97 % 1008.7 hPa 0.9 l/m 0.2 km/h (0 Bft) N 9.6 C 10.1 C
27.05.2002 16:00 9.9 C 99 % 1008.7 hPa 0.9 l/m 3.1 km/h (1 Bft) SO 9.7 C 9.6 C
27.05.2002 17:00 9.4 C 100 % 1009.0 hPa 0.6 l/m 4.0 km/h (1 Bft) SO 9.4 C 9.0 C
27.05.2002 18:00 9.3 C 99 % 1008.7 hPa 0.0 l/m 7.6 km/h (2 Bft) SO 9.2 C 8.3 C
27.05.2002 19:00 8.7 C 99 % 1008.9 hPa 0.0 l/m 10.0 km/h (2 Bft) SO 8.5 C 7.2 C
27.05.2002 20:00 8.2 C 99 % 1009.2 hPa 0.0 l/m 2.6 km/h (1 Bft) SO 8.1 C 7.9 C
27.05.2002 21:00 7.8 C 100 % 1010.1 hPa 0.6 l/m 0.6 km/h (0 Bft) O-SO 7.8 C 7.8 C
27.05.2002 22:00 7.4 C 100 % 1010.8 hPa 0.0 l/m 0.1 km/h (0 Bft) N 7.4 C 7.4 C
27.05.2002 23:00 7.3 C 100 % 1010.8 hPa 0.6 l/m 0.0 km/h (0 Bft) N 7.3 C 7.3 C
28.05.2002 00:00 7.2 C 100 % 1010.8 hPa 0.0 l/m 0.0 km/h (0 Bft) N 7.2 C 7.2 C
28.05.2002 01:00 7.2 C 100 % 1010.8 hPa 0.0 l/m 0.0 km/h (0 Bft) N 7.2 C 7.2 C
28.05.2002 02:00 7.1 C 100 % 1010.8 hPa 0.0 l/m 0.0 km/h (0 Bft) N 7.1 C 7.1 C
28.05.2002 03:00 7.4 C 100 % 1010.8 hPa 0.3 l/m 0.0 km/h (0 Bft) N 7.4 C 7.4 C
28.05.2002 04:00 7.4 C 100 % 1010.8 hPa 0.3 l/m 0.0 km/h (0 Bft) N 7.4 C 7.4 C
28.05.2002 05:00 7.5 C 100 % 1010.8 hPa 0.3 l/m 0.1 km/h (0 Bft) N 7.5 C 7.5 C
28.05.2002 06:00 7.7 C 100 % 1010.8 hPa 0.0 l/m 0.1 km/h (0 Bft) N 7.7 C 7.7 C
28.05.2002 07:00 8.0 C 100 % 1011.7 hPa 0.0 l/m 1.3 km/h (1 Bft) SO 8.0 C 7.9 C
28.05.2002 08:00 8.8 C 100 % 1011.8 hPa 0.0 l/m 0.3 km/h (0 Bft) N 8.7 C 8.8 C
28.05.2002 09:00 9.7 C 93 % 1012.2 hPa 0.0 l/m 4.2 km/h (1 Bft) W-NW 8.6 C 9.2 C
28.05.2002 10:00 10.7 C 87 % 1012.8 hPa 0.0 l/m 3.3 km/h (1 Bft) W-NW 8.7 C 10.7 C
28.05.2002 11:00 11.2 C 86 % 1012.8 hPa 0.0 l/m 1.5 km/h (1 Bft) SO 9.0 C 11.2 C
28.05.2002 12:00 13.1 C 74 % 1012.8 hPa 0.0 l/m 4.1 km/h (1 Bft) W-NW 8.4 C 13.1 C
28.05.2002 13:00 13.2 C 68 % 1012.8 hPa 0.0 l/m 7.9 km/h (2 Bft) W 7.5 C 13.2 C
28.05.2002 14:00 13.7 C 71 % 1012.8 hPa 0.0 l/m 5.0 km/h (1 Bft) O-SO 8.7 C 13.7 C
28.05.2002 15:00 15.3 C 65 % 1012.1 hPa 0.0 l/m 5.6 km/h (1 Bft) O-SO 8.7 C 15.3 C
28.05.2002 16:00 16.7 C 61 % 1012.0 hPa 0.0 l/m 7.7 km/h (2 Bft) O-SO 9.1 C 16.7 C
28.05.2002 17:00 17.2 C 55 % 1012.0 hPa 0.0 l/m 3.4 km/h (1 Bft) O-SO 7.9 C 17.2 C
28.05.2002 18:00 17.4 C 54 % 1012.5 hPa 0.0 l/m 3.5 km/h (1 Bft) W 7.9 C 17.4 C
28.05.2002 19:00 16.3 C 58 % 1012.8 hPa 0.0 l/m 2.2 km/h (1 Bft) O-SO 8.0 C 16.3 C
28.05.2002 20:00 13.8 C 72 % 1012.8 hPa 0.0 l/m 0.5 km/h (0 Bft) SO 8.8 C 13.8 C
28.05.2002 21:00 11.0 C 86 % 1013.2 hPa 0.0 l/m 4.4 km/h (1 Bft) O-SO 8.7 C 11.0 C
28.05.2002 22:00 9.4 C 94 % 1013.9 hPa 0.0 l/m 4.0 km/h (1 Bft) O-SO 8.4 C 9.1 C
28.05.2002 23:00 8.3 C 98 % 1014.1 hPa 0.0 l/m 1.8 km/h (1 Bft) O-SO 7.9 C 8.1 C
29.05.2002 00:00 7.6 C 100 % 1014.7 hPa 0.0 l/m 1.5 km/h (1 Bft) O-SO 7.6 C 7.6 C
29.05.2002 01:00 8.4 C 99 % 1014.9 hPa 0.0 l/m 1.6 km/h (1 Bft) O-SO 8.3 C 8.2 C
29.05.2002 02:00 8.6 C 100 % 1014.9 hPa 0.0 l/m 0.4 km/h (0 Bft) O-SO 8.6 C 8.6 C
29.05.2002 03:00 8.5 C 100 % 1014.9 hPa 0.0 l/m 1.0 km/h (0 Bft) O-SO 8.5 C 8.5 C
29.05.2002 04:00 8.3 C 100 % 1014.9 hPa 0.0 l/m 1.8 km/h (1 Bft) O-SO 8.3 C 8.3 C
29.05.2002 05:00 7.5 C 100 % 1015.8 hPa 0.0 l/m 0.6 km/h (0 Bft) O-SO 7.5 C 7.5 C
29.05.2002 06:00 7.9 C 100 % 1015.9 hPa 0.0 l/m 0.4 km/h (0 Bft) O-SO 7.9 C 7.9 C
29.05.2002 07:00 8.6 C 100 % 1015.9 hPa 0.0 l/m 0.1 km/h (0 Bft) O-SO 8.6 C 8.6 C
29.05.2002 08:00 10.0 C 92 % 1016.0 hPa 0.0 l/m 0.4 km/h (0 Bft) NW 8.8 C 10.0 C
29.05.2002 09:00 12.3 C 81 % 1017.0 hPa 0.0 l/m 2.2 km/h (1 Bft) SO 9.2 C 12.3 C
29.05.2002 10:00 14.1 C 70 % 1017.0 hPa 0.0 l/m 18.3 km/h (3 Bft) NW 8.8 C 14.1 C
29.05.2002 11:00 12.9 C 75 % 1017.9 hPa 0.0 l/m 15.6 km/h (3 Bft) W-NW 8.7 C 12.9 C
29.05.2002 12:00 13.2 C 69 % 1018.5 hPa 0.0 l/m 16.6 km/h (3 Bft) NW 7.6 C 13.2 C
29.05.2002 13:00 13.7 C 62 % 1019.0 hPa 0.0 l/m 19.5 km/h (3 Bft) NW 6.6 C 13.7 C
29.05.2002 14:00 14.0 C 60 % 1019.4 hPa 0.0 l/m 21.9 km/h (4 Bft) NW 6.4 C 14.0 C
29.05.2002 15:00 13.9 C 60 % 1020.1 hPa 0.0 l/m 23.5 km/h (4 Bft) NW 6.3 C 13.9 C
29.05.2002 16:00 14.9 C 58 % 1020.1 hPa 0.0 l/m 14.0 km/h (3 Bft) NW 6.6 C 14.9 C
29.05.2002 17:00 15.3 C 56 % 1020.1 hPa 0.0 l/m 11.4 km/h (2 Bft) NW 6.7 C 15.3 C
29.05.2002 18:00 15.2 C 57 % 1020.8 hPa 0.0 l/m 6.9 km/h (2 Bft) NW 6.8 C 15.2 C
29.05.2002 19:00 14.9 C 60 % 1021.1 hPa 0.0 l/m 6.3 km/h (2 Bft) NW 7.1 C 14.9 C
29.05.2002 20:00 14.2 C 64 % 1021.1 hPa 0.0 l/m 0.2 km/h (0 Bft) W 7.5 C 14.2 C
29.05.2002 21:00 12.8 C 73 % 1022.0 hPa 0.0 l/m 1.3 km/h (1 Bft) SO 8.2 C 12.8 C
29.05.2002 22:00 11.0 C 84 % 1022.4 hPa 0.0 l/m 0.6 km/h (0 Bft) O-SO 8.4 C 11.0 C
29.05.2002 23:00 9.0 C 93 % 1023.2 hPa 0.0 l/m 0.8 km/h (0 Bft) O-SO 7.9 C 8.9 C
30.05.2002 00:00 7.8 C 98 % 1023.2 hPa 0.0 l/m 0.3 km/h (0 Bft) O-SO 7.4 C 7.8 C
30.05.2002 01:00 6.8 C 100 % 1023.2 hPa 0.0 l/m 1.8 km/h (1 Bft) O-SO 6.8 C 6.6 C
30.05.2002 02:00 6.1 C 100 % 1023.2 hPa 0.0 l/m 2.0 km/h (1 Bft) O-SO 6.1 C 6.0 C
30.05.2002 03:00 5.5 C 100 % 1023.2 hPa 0.0 l/m 0.0 km/h (0 Bft) N 5.5 C 5.5 C
30.05.2002 04:00 5.2 C 100 % 1024.0 hPa 0.0 l/m 0.2 km/h (0 Bft) O-SO 5.2 C 5.2 C
30.05.2002 05:00 4.7 C 100 % 1023.3 hPa 0.0 l/m 0.0 km/h (0 Bft) N 4.7 C 4.7 C
30.05.2002 06:00 5.2 C 100 % 1023.2 hPa 0.0 l/m 0.0 km/h (0 Bft) N 5.2 C 5.2 C
30.05.2002 07:00 6.7 C 99 % 1023.6 hPa 0.0 l/m 0.0 km/h (0 Bft) N 6.5 C 6.7 C
30.05.2002 08:00 8.5 C 89 % 1023.2 hPa 0.0 l/m 0.9 km/h (0 Bft) W-NW 6.7 C 8.5 C
30.05.2002 09:00 11.6 C 75 % 1023.2 hPa 0.0 l/m 0.7 km/h (0 Bft) W-NW 7.4 C 11.6 C
30.05.2002 10:00 14.6 C 66 % 1023.2 hPa 0.0 l/m 1.2 km/h (1 Bft) O-SO 8.2 C 14.6 C
30.05.2002 11:00 16.4 C 57 % 1023.2 hPa 0.0 l/m 1.7 km/h (1 Bft) N-NW 7.8 C 16.4 C
30.05.2002 12:00 18.1 C 51 % 1022.4 hPa 0.0 l/m 3.8 km/h (1 Bft) O-SO 7.9 C 18.1 C
30.05.2002 13:00 19.2 C 48 % 1022.2 hPa 0.0 l/m 4.0 km/h (1 Bft) W-NW 8.0 C 19.2 C
30.05.2002 14:00 20.7 C 43 % 1022.2 hPa 0.0 l/m 3.2 km/h (1 Bft) NW 7.6 C 20.7 C
30.05.2002 15:00 21.9 C 42 % 1022.2 hPa 0.0 l/m 1.2 km/h (1 Bft) NW 8.2 C 21.9 C
30.05.2002 16:00 22.9 C 40 % 1021.6 hPa 0.0 l/m 3.7 km/h (1 Bft) W-NW 8.5 C 22.9 C
30.05.2002 17:00 22.8 C 37 % 1021.4 hPa 0.0 l/m 11.0 km/h (2 Bft) NW 7.3 C 22.8 C
30.05.2002 18:00 21.3 C 46 % 1021.5 hPa 0.0 l/m 13.3 km/h (3 Bft) W-NW 9.2 C 21.3 C
30.05.2002 19:00 20.4 C 51 % 1021.3 hPa 0.0 l/m 9.1 km/h (2 Bft) W-NW 9.8 C 20.4 C
30.05.2002 20:00 18.1 C 56 % 1022.2 hPa 0.0 l/m 7.4 km/h (2 Bft) NW 9.3 C 18.1 C
30.05.2002 21:00 15.6 C 61 % 1022.5 hPa 0.0 l/m 1.3 km/h (1 Bft) O-SO 8.1 C 15.6 C
30.05.2002 22:00 14.4 C 68 % 1023.2 hPa 0.0 l/m 0.6 km/h (0 Bft) O-SO 8.5 C 14.4 C
30.05.2002 23:00 13.9 C 72 % 1023.2 hPa 0.0 l/m 1.3 km/h (1 Bft) O-SO 8.9 C 13.9 C
31.05.2002 00:00 13.0 C 78 % 1024.2 hPa 0.0 l/m 1.6 km/h (1 Bft) O-SO 9.3 C 13.0 C
31.05.2002 01:00 11.6 C 85 % 1024.2 hPa 0.0 l/m 2.0 km/h (1 Bft) O-SO 9.2 C 11.6 C
31.05.2002 02:00 10.1 C 92 % 1024.2 hPa 0.0 l/m 0.7 km/h (0 Bft) O-SO 8.8 C 10.1 C
31.05.2002 03:00 9.7 C 94 % 1024.2 hPa 0.0 l/m 0.3 km/h (0 Bft) O-SO 8.8 C 9.7 C
31.05.2002 04:00 8.9 C 97 % 1024.2 hPa 0.0 l/m 0.0 km/h (0 Bft) N 8.4 C 8.9 C
31.05.2002 05:00 8.7 C 98 % 1024.8 hPa 0.0 l/m 0.0 km/h (0 Bft) N 8.4 C 8.7 C
31.05.2002 06:00 8.7 C 97 % 1025.3 hPa 0.0 l/m 0.1 km/h (0 Bft) N 8.2 C 8.7 C
31.05.2002 07:00 9.9 C 94 % 1025.3 hPa 0.0 l/m 0.0 km/h (0 Bft) N 9.1 C 9.9 C
31.05.2002 08:00 12.2 C 78 % 1025.3 hPa 0.0 l/m 0.0 km/h (0 Bft) N 8.3 C 12.2 C
31.05.2002 09:00 14.7 C 65 % 1025.3 hPa 0.0 l/m 0.4 km/h (0 Bft) NW 8.3 C 14.7 C
31.05.2002 10:00 17.3 C 55 % 1025.3 hPa 0.0 l/m 2.4 km/h (1 Bft) O-SO 8.1 C 17.3 C
31.05.2002 11:00 19.2 C 50 % 1025.3 hPa 0.0 l/m 2.1 km/h (1 Bft) O-SO 8.5 C 19.2 C
31.05.2002 12:00 20.5 C 45 % 1024.3 hPa 0.0 l/m 1.3 km/h (1 Bft) W-NW 8.2 C 20.5 C
31.05.2002 13:00 21.5 C 40 % 1024.2 hPa 0.0 l/m 1.8 km/h (1 Bft) NW 7.3 C 21.5 C
31.05.2002 14:00 23.1 C 39 % 1023.2 hPa 0.0 l/m 1.8 km/h (1 Bft) O-SO 8.5 C 23.1 C
31.05.2002 15:00 24.1 C 39 % 1023.2 hPa 0.0 l/m 3.4 km/h (1 Bft) O-SO 9.3 C 24.1 C
31.05.2002 16:00 24.4 C 38 % 1023.1 hPa 0.0 l/m 2.3 km/h (1 Bft) W 9.1 C 24.4 C
31.05.2002 17:00 24.4 C 40 % 1022.2 hPa 0.0 l/m 8.8 km/h (2 Bft) NW 9.7 C 24.4 C
31.05.2002 18:00 23.9 C 40 % 1022.2 hPa 0.0 l/m 9.1 km/h (2 Bft) NW 9.3 C 23.9 C
31.05.2002 19:00 22.5 C 42 % 1022.2 hPa 0.0 l/m 3.1 km/h (1 Bft) W 8.9 C 22.5 C
31.05.2002 20:00 20.4 C 48 % 1022.2 hPa 0.0 l/m 3.4 km/h (1 Bft) O-SO 8.9 C 20.4 C
31.05.2002 21:00 17.1 C 56 % 1023.0 hPa 0.0 l/m 2.7 km/h (1 Bft) O-SO 8.1 C 17.1 C
31.05.2002 22:00 14.5 C 67 % 1023.4 hPa 0.0 l/m 2.4 km/h (1 Bft) O-SO 8.3 C 14.5 C
31.05.2002 23:00 12.6 C 78 % 1024.2 hPa 0.0 l/m 1.1 km/h (1 Bft) O-SO 8.9 C 12.6 C
01.06.2002 00:00 11.6 C 85 % 1024.2 hPa 0.0 l/m 0.7 km/h (0 Bft) O-SO 9.1 C 11.6 C
01.06.2002 01:00 10.9 C 85 % 1024.2 hPa 0.0 l/m 0.0 km/h (0 Bft) N 8.4 C 10.9 C
01.06.2002 02:00 10.3 C 86 % 1024.1 hPa 0.0 l/m 0.0 km/h (0 Bft) N 8.1 C 10.3 C
01.06.2002 03:00 9.6 C 91 % 1023.2 hPa 0.0 l/m 0.0 km/h (0 Bft) N 8.2 C 9.6 C
01.06.2002 04:00 8.6 C 96 % 1023.2 hPa 0.0 l/m 0.0 km/h (0 Bft) N 8.1 C 8.6 C
01.06.2002 05:00 7.9 C 99 % 1023.2 hPa 0.0 l/m 0.0 km/h (0 Bft) N 7.8 C 7.9 C
01.06.2002 06:00 8.3 C 98 % 1023.2 hPa 0.0 l/m 0.0 km/h (0 Bft) N 8.1 C 8.3 C
01.06.2002 07:00 10.0 C 92 % 1023.2 hPa 0.0 l/m 0.0 km/h (0 Bft) N 8.8 C 10.0 C
01.06.2002 08:00 12.4 C 79 % 1023.2 hPa 0.0 l/m 0.3 km/h (0 Bft) W-NW 8.8 C 12.4 C
01.06.2002 09:00 15.2 C 68 % 1023.2 hPa 0.0 l/m 0.6 km/h (0 Bft) W-NW 9.3 C 15.2 C
01.06.2002 10:00 18.4 C 57 % 1023.1 hPa 0.0 l/m 1.9 km/h (1 Bft) NW 9.7 C 18.4 C
01.06.2002 11:00 20.7 C 52 % 1022.2 hPa 0.0 l/m 4.9 km/h (1 Bft) O-SO 10.4 C 20.7 C
01.06.2002 12:00 22.8 C 47 % 1022.2 hPa 0.0 l/m 9.1 km/h (2 Bft) O-SO 10.8 C 22.8 C
01.06.2002 13:00 24.0 C 41 % 1021.4 hPa 0.0 l/m 6.3 km/h (2 Bft) O-SO 10.0 C 24.0 C
01.06.2002 14:00 25.2 C 37 % 1020.9 hPa 0.0 l/m 7.6 km/h (2 Bft) O-SO 9.4 C 25.2 C
01.06.2002 15:00 26.0 C 35 % 1020.1 hPa 0.0 l/m 10.8 km/h (2 Bft) O-SO 9.4 C 26.0 C
01.06.2002 16:00 26.1 C 36 % 1020.1 hPa 0.0 l/m 9.8 km/h (2 Bft) O-SO 9.6 C 26.1 C
01.06.2002 17:00 26.2 C 34 % 1019.4 hPa 0.0 l/m 6.2 km/h (2 Bft) O-SO 9.2 C 26.2 C
01.06.2002 18:00 25.5 C 37 % 1019.0 hPa 0.0 l/m 5.2 km/h (1 Bft) O-SO 9.5 C 25.5 C
01.06.2002 19:00 24.4 C 41 % 1019.0 hPa 0.0 l/m 2.3 km/h (1 Bft) O-SO 10.2 C 24.4 C
01.06.2002 20:00 22.1 C 50 % 1019.0 hPa 0.0 l/m 4.9 km/h (1 Bft) O-SO 11.1 C 22.1 C
01.06.2002 21:00 18.7 C 56 % 1019.0 hPa 0.0 l/m 2.1 km/h (1 Bft) O-SO 9.7 C 18.7 C
01.06.2002 22:00 16.1 C 71 % 1020.1 hPa 0.0 l/m 1.8 km/h (1 Bft) O-SO 10.8 C 16.1 C
01.06.2002 23:00 15.2 C 77 % 1020.1 hPa 0.0 l/m 0.0 km/h (0 Bft) N 11.2 C 15.2 C
02.06.2002 00:00 14.3 C 80 % 1020.1 hPa 0.0 l/m 0.0 km/h (0 Bft) N 10.9 C 14.3 C
02.06.2002 01:00 13.5 C 79 % 1020.1 hPa 0.0 l/m 0.0 km/h (0 Bft) N 9.9 C 13.5 C
02.06.2002 02:00 12.5 C 83 % 1020.1 hPa 0.0 l/m 0.3 km/h (0 Bft) O-SO 9.6 C 12.5 C
02.06.2002 03:00 11.5 C 86 % 1020.1 hPa 0.0 l/m 0.0 km/h (0 Bft) N 9.2 C 11.5 C
02.06.2002 04:00 10.5 C 89 % 1020.1 hPa 0.0 l/m 0.4 km/h (0 Bft) O 8.7 C 10.5 C
02.06.2002 05:00 9.9 C 89 % 1020.1 hPa 0.0 l/m 0.0 km/h (0 Bft) N 8.2 C 9.9 C
02.06.2002 06:00 9.8 C 91 % 1020.1 hPa 0.0 l/m 0.0 km/h (0 Bft) N 8.4 C 9.8 C
02.06.2002 07:00 11.4 C 88 % 1020.1 hPa 0.0 l/m 0.0 km/h (0 Bft) O-SO 9.4 C 11.4 C
02.06.2002 08:00 14.8 C 64 % 1020.1 hPa 0.0 l/m 2.1 km/h (1 Bft) O 8.0 C 14.8 C
02.06.2002 09:00 16.8 C 58 % 1020.1 hPa 0.0 l/m 10.2 km/h (2 Bft) O-SO 8.5 C 16.8 C
02.06.2002 10:00 18.7 C 55 % 1020.1 hPa 0.0 l/m 5.6 km/h (1 Bft) NO 9.3 C 18.7 C
02.06.2002 11:00 20.7 C 51 % 1019.5 hPa 0.0 l/m 4.0 km/h (1 Bft) O-SO 10.3 C 20.7 C
02.06.2002 12:00 22.7 C 48 % 1018.9 hPa 0.0 l/m 7.5 km/h (2 Bft) O-SO 11.1 C 22.7 C
02.06.2002 13:00 24.2 C 45 % 1018.0 hPa 0.0 l/m 16.5 km/h (3 Bft) O-SO 11.3 C 24.2 C
02.06.2002 14:00 25.3 C 43 % 1017.7 hPa 0.0 l/m 15.5 km/h (3 Bft) O-SO 11.6 C 25.3 C
02.06.2002 15:00 25.8 C 43 % 1016.9 hPa 0.0 l/m 14.5 km/h (3 Bft) O-SO 12.3 C 25.8 C
02.06.2002 16:00 25.9 C 42 % 1016.1 hPa 0.0 l/m 16.6 km/h (3 Bft) O-SO 12.1 C 25.9 C
02.06.2002 17:00 25.8 C 41 % 1015.9 hPa 0.0 l/m 13.5 km/h (3 Bft) O-SO 11.4 C 25.8 C
02.06.2002 18:00 24.9 C 44 % 1015.9 hPa 0.0 l/m 10.9 km/h (2 Bft) O-SO 11.6 C 24.9 C
02.06.2002 19:00 23.0 C 47 % 1015.9 hPa 0.0 l/m 4.9 km/h (1 Bft) O-SO 11.1 C 23.0 C
02.06.2002 20:00 20.8 C 56 % 1015.3 hPa 0.0 l/m 0.0 km/h (0 Bft) N 11.7 C 20.8 C
02.06.2002 21:00 18.8 C 60 % 1015.9 hPa 0.0 l/m 1.0 km/h (0 Bft) O-SO 10.9 C 18.8 C
02.06.2002 22:00 18.2 C 60 % 1015.9 hPa 0.0 l/m 0.3 km/h (0 Bft) N-NO 10.2 C 18.2 C
02.06.2002 23:00 16.3 C 69 % 1015.9 hPa 0.0 l/m 0.2 km/h (0 Bft) SO 10.6 C 16.3 C
Min-Datum _ 30.05.02 31.05.02 27.05.02 - 27.05.02 - 30.05.02 30.05.02
_ Min-Zeit 05:43 16:11 06:28 - 00:19 - 05:43 05:43
Minimum _ 4.5 C 30 % 1008.7 hPa - 0.0 km/h (0 Bft) - 4.5 C 4.5 C
Max-Datum _ 01.06.02 27.05.02 31.05.02 27.05.02 29.05.02 - 02.06.02 01.06.02
_ Max-Zeit 17:27 00:19 06:00 03:00 15:39 - 15:19 17:27
Maximum _ 26.4 C 100 % 1025.3 hPa 3.6 l/m 43.2 km/h
NW (6 Bft)
- 13.0 C 26.4 C
Durchschnitt _ 14.0 C 75 % 1018.1 hPa #23.1 l/m 3.5 km/h (1 Bft) O-SO 8.7 C 13.9 C

Durchschnitt Minimum Temp.13.1 C
Durchschnitt Maximum Temp.14.9 C
© Kaiko 2002